createdAt,value
2017-12-06T00:00:55.439Z,0
2017-12-06T00:02:03.975Z,0
2017-12-06T00:03:12.785Z,0
2017-12-06T00:04:21.322Z,0
2017-12-06T00:05:30.123Z,0
2017-12-06T00:06:39.200Z,0
2017-12-06T00:07:48.274Z,0
2017-12-06T00:08:56.812Z,0
2017-12-06T00:10:05.351Z,0
2017-12-06T00:11:13.889Z,0
2017-12-06T00:12:22.691Z,0
2017-12-06T00:13:31.232Z,0
2017-12-06T00:14:39.770Z,0
2017-12-06T00:15:48.850Z,0
2017-12-06T00:16:57.657Z,0
2017-12-06T00:18:06.466Z,0
2017-12-06T00:19:15.271Z,0
2017-12-06T00:20:24.075Z,0
2017-12-06T00:21:32.613Z,0
2017-12-06T00:22:41.152Z,0
2017-12-06T00:23:50.494Z,0
2017-12-06T00:24:59.029Z,0
2017-12-06T00:26:07.839Z,0
2017-12-06T00:27:16.375Z,0
2017-12-06T00:28:25.179Z,0
2017-12-06T00:29:33.718Z,0
2017-12-06T00:30:42.792Z,0
2017-12-06T00:31:51.598Z,0
2017-12-06T00:33:00.416Z,0
2017-12-06T00:34:09.218Z,0
2017-12-06T00:35:18.025Z,0
2017-12-06T00:36:26.563Z,0
2017-12-06T00:37:35.099Z,0
2017-12-06T00:38:43.637Z,0
2017-12-06T00:39:52.705Z,0
2017-12-06T00:41:01.244Z,0
2017-12-06T00:42:09.781Z,0
2017-12-06T00:43:19.127Z,0
2017-12-06T00:44:28.204Z,0
2017-12-06T00:45:36.739Z,0
2017-12-06T00:46:45.541Z,0
2017-12-06T00:47:54.620Z,0
2017-12-06T00:49:03.689Z,0
2017-12-06T00:50:12.496Z,0
2017-12-06T00:51:21.301Z,0
2017-12-06T00:52:30.639Z,0
2017-12-06T00:53:39.177Z,0
2017-12-06T00:54:47.993Z,0
2017-12-06T00:55:56.531Z,0
2017-12-06T00:57:05.070Z,0
2017-12-06T00:58:13.878Z,0
2017-12-06T00:59:22.678Z,0
2017-12-06T01:00:31.224Z,0
2017-12-06T01:01:40.363Z,0
2017-12-06T01:02:49.437Z,0
2017-12-06T01:03:57.977Z,0
2017-12-06T01:05:06.518Z,0
2017-12-06T01:06:15.055Z,0
2017-12-06T01:07:23.594Z,0
2017-12-06T01:08:32.400Z,0
2017-12-06T01:09:40.938Z,0
2017-12-06T01:10:50.016Z,0
2017-12-06T01:11:58.558Z,0
2017-12-06T01:13:07.097Z,0
2017-12-06T01:14:15.901Z,0
2017-12-06T01:15:24.706Z,0
2017-12-06T01:16:33.248Z,0
2017-12-06T01:17:42.053Z,0
2017-12-06T01:18:50.599Z,0
2017-12-06T01:19:59.397Z,0
2017-12-06T01:21:08.465Z,0
2017-12-06T01:22:17.003Z,0
2017-12-06T01:23:25.809Z,0
2017-12-06T01:24:34.347Z,0
2017-12-06T01:25:43.161Z,0
2017-12-06T01:26:51.964Z,0
2017-12-06T01:28:00.772Z,0
2017-12-06T01:29:09.846Z,0
2017-12-06T01:30:18.385Z,0
2017-12-06T01:31:26.930Z,0
2017-12-06T01:32:35.743Z,0
2017-12-06T01:33:44.548Z,0
2017-12-06T01:34:53.671Z,0
2017-12-06T01:36:02.746Z,0
2017-12-06T01:37:11.552Z,0
2017-12-06T01:38:20.628Z,0
2017-12-06T01:39:29.702Z,0
2017-12-06T01:40:38.242Z,0
2017-12-06T01:41:47.050Z,0
2017-12-06T01:42:55.857Z,0
2017-12-06T01:44:04.663Z,0
2017-12-06T01:45:13.468Z,0
2017-12-06T01:46:22.274Z,0
2017-12-06T01:47:31.353Z,0
2017-12-06T01:48:39.886Z,0
2017-12-06T01:49:48.423Z,0
2017-12-06T01:50:57.231Z,0
2017-12-06T01:52:05.767Z,0
2017-12-06T01:53:14.837Z,0
2017-12-06T01:54:23.640Z,0
2017-12-06T01:55:32.445Z,0
2017-12-06T01:56:41.785Z,0
2017-12-06T01:57:50.586Z,0
2017-12-06T01:58:59.391Z,0
2017-12-06T02:00:07.931Z,0
2017-12-06T02:01:16.471Z,0
2017-12-06T02:02:25.546Z,0
2017-12-06T02:03:34.353Z,0
2017-12-06T02:04:43.200Z,0
2017-12-06T02:05:52.274Z,0
2017-12-06T02:07:01.076Z,0
2017-12-06T02:08:09.614Z,0
2017-12-06T02:09:18.152Z,0
2017-12-06T02:10:26.688Z,0
2017-12-06T02:11:35.767Z,0
2017-12-06T02:12:44.574Z,0
2017-12-06T02:13:53.642Z,0
2017-12-06T02:15:02.447Z,0
2017-12-06T02:16:11.251Z,0
2017-12-06T02:17:20.055Z,0
2017-12-06T02:18:29.394Z,0
2017-12-06T02:19:38.209Z,0
2017-12-06T02:20:47.287Z,0
2017-12-06T02:21:56.360Z,0
2017-12-06T02:23:05.163Z,0
2017-12-06T02:24:13.700Z,0
2017-12-06T02:25:22.238Z,0
2017-12-06T02:26:30.777Z,0
2017-12-06T02:27:39.318Z,0
2017-12-06T02:28:48.121Z,0
2017-12-06T02:29:56.933Z,0
2017-12-06T02:31:06.017Z,0
2017-12-06T02:32:14.550Z,0
2017-12-06T02:33:23.769Z,0
2017-12-06T02:34:32.890Z,0
2017-12-06T02:35:41.473Z,0
2017-12-06T02:36:50.284Z,0
2017-12-06T02:37:58.817Z,0
2017-12-06T02:39:07.687Z,0
2017-12-06T02:40:16.271Z,0
2017-12-06T02:41:25.075Z,0
2017-12-06T02:42:33.617Z,0
2017-12-06T02:43:42.787Z,0
2017-12-06T02:44:51.914Z,0
2017-12-06T02:46:00.725Z,0
2017-12-06T02:47:09.533Z,0
2017-12-06T02:48:18.881Z,0
2017-12-06T02:49:27.691Z,0
2017-12-06T02:50:36.509Z,0
2017-12-06T02:51:45.305Z,0
2017-12-06T02:52:53.845Z,0
2017-12-06T02:54:02.654Z,0
2017-12-06T02:55:11.191Z,0
2017-12-06T02:56:20.001Z,0
2017-12-06T02:57:29.078Z,0
2017-12-06T02:58:37.885Z,0
2017-12-06T02:59:46.420Z,0
2017-12-06T03:00:54.957Z,0
2017-12-06T03:02:03.494Z,0
2017-12-06T03:03:12.566Z,0
2017-12-06T03:04:21.105Z,0
2017-12-06T03:05:29.646Z,0
2017-12-06T03:06:38.184Z,0
2017-12-06T03:07:46.722Z,0
2017-12-06T03:08:55.869Z,0
2017-12-06T03:10:04.942Z,0
2017-12-06T03:11:13.744Z,0
2017-12-06T03:12:22.558Z,0
2017-12-06T03:13:31.361Z,0
2017-12-06T03:14:40.165Z,0
2017-12-06T03:15:49.238Z,0
2017-12-06T03:16:57.774Z,0
2017-12-06T03:18:06.582Z,0
2017-12-06T03:19:15.121Z,0
2017-12-06T03:20:24.463Z,0
2017-12-06T03:21:33.265Z,0
2017-12-06T03:22:41.805Z,0
2017-12-06T03:23:51.147Z,0
2017-12-06T03:24:59.683Z,0
2017-12-06T03:26:08.494Z,0
2017-12-06T03:27:17.298Z,0
2017-12-06T03:28:26.636Z,0
2017-12-06T03:29:35.704Z,0
2017-12-06T03:30:44.522Z,0
2017-12-06T03:31:53.324Z,0
2017-12-06T03:33:02.408Z,0
2017-12-06T03:34:11.476Z,0
2017-12-06T03:35:20.012Z,0
2017-12-06T03:36:28.811Z,0
2017-12-06T03:37:37.613Z,0
2017-12-06T03:38:46.697Z,0
2017-12-06T03:39:55.232Z,0
2017-12-06T03:41:04.302Z,0
2017-12-06T03:42:12.841Z,0
2017-12-06T03:43:21.380Z,0
2017-12-06T03:44:29.920Z,0
2017-12-06T03:45:38.729Z,0
2017-12-06T03:46:48.069Z,0
2017-12-06T03:47:56.607Z,0
2017-12-06T03:49:05.410Z,0
2017-12-06T03:50:13.947Z,0
2017-12-06T03:51:22.795Z,0
2017-12-06T03:52:31.286Z,0
2017-12-06T03:53:39.824Z,0
2017-12-06T03:54:48.631Z,0
2017-12-06T03:55:57.438Z,0
2017-12-06T03:57:06.512Z,0
2017-12-06T03:58:15.318Z,0
2017-12-06T03:59:24.126Z,0
2017-12-06T04:00:32.929Z,0
2017-12-06T04:01:41.464Z,0
2017-12-06T04:02:50.274Z,0
2017-12-06T04:03:58.810Z,0
2017-12-06T04:05:07.617Z,0
2017-12-06T04:06:16.158Z,0
2017-12-06T04:07:25.265Z,0
2017-12-06T04:08:33.799Z,0
2017-12-06T04:09:42.335Z,0
2017-12-06T04:10:51.144Z,0
2017-12-06T04:11:59.952Z,0
2017-12-06T04:13:08.490Z,0
2017-12-06T04:14:17.294Z,0
2017-12-06T04:15:25.834Z,0
2017-12-06T04:16:34.370Z,0
2017-12-06T04:17:42.915Z,0
2017-12-06T04:18:52.533Z,0
2017-12-06T04:20:01.607Z,0
2017-12-06T04:21:10.680Z,0
2017-12-06T04:22:19.221Z,0
2017-12-06T04:23:27.759Z,0
2017-12-06T04:24:36.297Z,0
2017-12-06T04:25:44.832Z,0
2017-12-06T04:26:53.636Z,0
2017-12-06T04:28:02.179Z,0
2017-12-06T04:29:10.988Z,0
2017-12-06T04:30:19.798Z,0
2017-12-06T04:31:28.604Z,0
2017-12-06T04:32:37.143Z,0
2017-12-06T04:33:46.217Z,0
2017-12-06T04:34:54.758Z,0
2017-12-06T04:36:03.560Z,0
2017-12-06T04:37:12.366Z,0
2017-12-06T04:38:20.908Z,0
2017-12-06T04:39:29.712Z,0
2017-12-06T04:40:38.517Z,0
2017-12-06T04:41:47.323Z,0
2017-12-06T04:42:56.398Z,0
2017-12-06T04:44:05.205Z,0
2017-12-06T04:45:14.012Z,0
2017-12-06T04:46:22.815Z,0
2017-12-06T04:47:31.617Z,0
2017-12-06T04:48:40.426Z,0
2017-12-06T04:49:49.229Z,0
2017-12-06T04:50:57.770Z,0
2017-12-06T04:52:06.847Z,0
2017-12-06T04:53:15.922Z,0
2017-12-06T04:54:24.724Z,0
2017-12-06T04:55:33.260Z,0
2017-12-06T04:56:42.338Z,0
2017-12-06T04:57:51.142Z,0
2017-12-06T04:58:59.951Z,0
2017-12-06T05:00:09.027Z,0
2017-12-06T05:01:17.567Z,0
2017-12-06T05:02:26.373Z,0
2017-12-06T05:03:35.186Z,0
2017-12-06T05:04:44.262Z,0
2017-12-06T05:05:52.803Z,0
2017-12-06T05:07:01.335Z,0
2017-12-06T05:08:10.146Z,0
2017-12-06T05:09:18.951Z,0
2017-12-06T05:10:27.753Z,0
2017-12-06T05:11:36.291Z,0
2017-12-06T05:12:45.099Z,0
2017-12-06T05:13:53.634Z,0
2017-12-06T05:15:02.441Z,0
2017-12-06T05:16:11.247Z,0
2017-12-06T05:17:19.786Z,0
2017-12-06T05:18:28.591Z,0
2017-12-06T05:19:37.659Z,0
2017-12-06T05:20:46.196Z,0
2017-12-06T05:21:55.268Z,0
2017-12-06T05:23:04.077Z,0
2017-12-06T05:24:12.616Z,0
2017-12-06T05:25:21.153Z,0
2017-12-06T05:26:29.694Z,0
2017-12-06T05:27:38.233Z,0
2017-12-06T05:28:46.771Z,0
2017-12-06T05:29:55.576Z,0
2017-12-06T05:31:04.380Z,0
2017-12-06T05:32:13.180Z,0
2017-12-06T05:33:21.991Z,0
2017-12-06T05:34:31.330Z,0
2017-12-06T05:35:39.867Z,0
2017-12-06T05:36:48.994Z,0
2017-12-06T05:37:57.535Z,0
2017-12-06T05:39:06.606Z,0
2017-12-06T05:40:15.411Z,0
2017-12-06T05:41:24.218Z,0
2017-12-06T05:42:33.295Z,0
2017-12-06T05:43:41.834Z,0
2017-12-06T05:44:50.920Z,0
2017-12-06T05:45:59.998Z,0
2017-12-06T05:47:08.528Z,0
2017-12-06T05:48:17.601Z,0
2017-12-06T05:49:26.676Z,0
2017-12-06T05:50:35.212Z,0
2017-12-06T05:51:43.752Z,0
2017-12-06T05:52:52.827Z,0
2017-12-06T05:54:01.914Z,0
2017-12-06T05:55:10.770Z,0
2017-12-06T05:56:19.314Z,0
2017-12-06T05:57:27.850Z,0
2017-12-06T05:58:36.386Z,0
2017-12-06T05:59:45.732Z,0
2017-12-06T06:00:54.264Z,0
2017-12-06T06:02:03.068Z,0
2017-12-06T06:03:11.607Z,0
2017-12-06T06:04:20.415Z,0
2017-12-06T06:05:29.216Z,0
2017-12-06T06:06:37.754Z,0
2017-12-06T06:07:46.571Z,0
2017-12-06T06:08:55.372Z,0
2017-12-06T06:10:04.183Z,0
2017-12-06T06:11:12.724Z,0
2017-12-06T06:12:21.263Z,0
2017-12-06T06:13:30.069Z,0
2017-12-06T06:14:38.604Z,0
2017-12-06T06:15:47.412Z,0
2017-12-06T06:16:55.987Z,0
2017-12-06T06:18:04.762Z,0
2017-12-06T06:19:13.570Z,0
2017-12-06T06:20:22.381Z,0
2017-12-06T06:21:30.918Z,0
2017-12-06T06:22:39.465Z,0
2017-12-06T06:23:48.542Z,0
2017-12-06T06:24:57.346Z,0
2017-12-06T06:26:06.460Z,0
2017-12-06T06:27:14.961Z,0
2017-12-06T06:28:24.040Z,0
2017-12-06T06:29:32.846Z,0
2017-12-06T06:30:41.652Z,0
2017-12-06T06:31:50.724Z,0
2017-12-06T06:32:59.536Z,0
2017-12-06T06:34:08.343Z,0
2017-12-06T06:35:17.148Z,0
2017-12-06T06:36:26.223Z,0
2017-12-06T06:37:35.293Z,0
2017-12-06T06:38:44.105Z,0
2017-12-06T06:39:52.908Z,0
2017-12-06T06:41:01.447Z,0
2017-12-06T06:42:10.256Z,0
2017-12-06T06:43:19.329Z,0
2017-12-06T06:44:28.133Z,0
2017-12-06T06:45:37.205Z,0
2017-12-06T06:46:46.279Z,0
2017-12-06T06:47:54.816Z,0
2017-12-06T06:49:03.623Z,0
2017-12-06T06:50:12.432Z,0
2017-12-06T06:51:20.970Z,0
2017-12-06T06:52:29.508Z,0
2017-12-06T06:53:38.047Z,0
2017-12-06T06:54:46.852Z,0
2017-12-06T06:55:55.393Z,0
2017-12-06T06:57:04.196Z,0
2017-12-06T06:58:13.001Z,0
2017-12-06T06:59:22.744Z,0
2017-12-06T07:00:31.556Z,0
2017-12-06T07:01:40.367Z,0
2017-12-06T07:02:49.969Z,0
2017-12-06T07:03:59.042Z,0
2017-12-06T07:05:07.907Z,0
2017-12-06T07:06:16.736Z,0
2017-12-06T07:07:25.813Z,0
2017-12-06T07:08:35.160Z,0
2017-12-06T07:09:43.697Z,0
2017-12-06T07:10:52.231Z,0
2017-12-06T07:12:01.044Z,0
2017-12-06T07:13:09.580Z,0
2017-12-06T07:14:18.384Z,0
2017-12-06T07:15:26.922Z,0
2017-12-06T07:16:35.730Z,0
2017-12-06T07:17:44.540Z,0
2017-12-06T07:18:53.612Z,0
2017-12-06T07:20:02.423Z,0
2017-12-06T07:21:11.238Z,0
2017-12-06T07:22:20.051Z,0
2017-12-06T07:23:29.123Z,0
2017-12-06T07:24:37.934Z,0
2017-12-06T07:25:46.469Z,0
2017-12-06T07:26:55.543Z,0
2017-12-06T07:28:04.412Z,0
2017-12-06T07:29:13.216Z,0
2017-12-06T07:30:22.022Z,0
2017-12-06T07:31:30.561Z,0
2017-12-06T07:32:39.364Z,0
2017-12-06T07:33:47.905Z,5
2017-12-06T07:34:56.976Z,5
2017-12-06T07:36:06.046Z,5
2017-12-06T07:37:14.586Z,5
2017-12-06T07:38:23.396Z,5
2017-12-06T07:39:32.203Z,5
2017-12-06T07:40:41.007Z,5
2017-12-06T07:41:49.823Z,5
2017-12-06T07:42:59.248Z,5
2017-12-06T07:44:08.290Z,5
2017-12-06T07:45:17.096Z,5
2017-12-06T07:46:25.904Z,5
2017-12-06T07:47:34.812Z,5
2017-12-06T07:48:43.893Z,5
2017-12-06T07:49:52.696Z,10
2017-12-06T07:51:02.038Z,10
2017-12-06T07:52:10.844Z,10
2017-12-06T07:53:19.378Z,10
2017-12-06T07:54:28.026Z,10
2017-12-06T07:55:37.026Z,10
2017-12-06T07:56:45.616Z,10
2017-12-06T07:57:54.429Z,10
2017-12-06T07:59:03.242Z,10
2017-12-06T08:00:12.054Z,10
2017-12-06T08:01:20.866Z,10
2017-12-06T08:02:29.563Z,10
2017-12-06T08:03:38.374Z,10
2017-12-06T08:04:47.179Z,10
2017-12-06T08:05:55.918Z,10
2017-12-06T08:07:04.452Z,10
2017-12-06T08:08:13.793Z,10
2017-12-06T08:09:22.598Z,10
2017-12-06T08:10:31.405Z,10
2017-12-06T08:11:39.941Z,10
2017-12-06T08:12:48.478Z,10
2017-12-06T08:13:57.022Z,15
2017-12-06T08:15:05.855Z,15
2017-12-06T08:16:14.852Z,15
2017-12-06T08:17:23.389Z,15
2017-12-06T08:18:32.250Z,15
2017-12-06T08:19:40.891Z,15
2017-12-06T08:20:49.791Z,15
2017-12-06T08:21:58.381Z,15
2017-12-06T08:23:07.725Z,20
2017-12-06T08:24:16.276Z,20
2017-12-06T08:25:24.873Z,20
2017-12-06T08:26:33.684Z,20
2017-12-06T08:27:42.789Z,20
2017-12-06T08:28:51.604Z,15
2017-12-06T08:30:00.413Z,20
2017-12-06T08:31:09.236Z,15
2017-12-06T08:32:18.590Z,20
2017-12-06T08:33:27.688Z,20
2017-12-06T08:34:36.759Z,20
2017-12-06T08:35:45.831Z,20
2017-12-06T08:36:54.912Z,20
2017-12-06T08:38:03.456Z,20
2017-12-06T08:39:11.998Z,20
2017-12-06T08:40:20.823Z,25
2017-12-06T08:41:29.613Z,25
2017-12-06T08:42:38.155Z,20
2017-12-06T08:43:46.993Z,25
2017-12-06T08:44:56.200Z,25
2017-12-06T08:46:05.007Z,25
2017-12-06T08:47:13.822Z,20
2017-12-06T08:48:22.906Z,25
2017-12-06T08:49:31.443Z,25
2017-12-06T08:50:40.523Z,25
2017-12-06T08:51:49.334Z,25
2017-12-06T08:52:58.188Z,25
2017-12-06T08:54:07.267Z,25
2017-12-06T08:55:15.812Z,25
2017-12-06T08:56:25.408Z,25
2017-12-06T08:57:34.221Z,25
2017-12-06T08:58:43.316Z,30
2017-12-06T08:59:51.852Z,25
2017-12-06T09:01:00.663Z,30
2017-12-06T09:02:09.204Z,30
2017-12-06T09:03:18.284Z,30
2017-12-06T09:04:26.827Z,30
2017-12-06T09:05:35.640Z,30
2017-12-06T09:06:44.177Z,30
2017-12-06T09:07:52.716Z,35
2017-12-06T09:09:02.059Z,35
2017-12-06T09:10:11.157Z,35
2017-12-06T09:11:20.232Z,30
2017-12-06T09:12:29.319Z,35
2017-12-06T09:13:38.520Z,35
2017-12-06T09:14:47.105Z,35
2017-12-06T09:15:55.914Z,40
2017-12-06T09:17:04.458Z,40
2017-12-06T09:18:13.001Z,40
2017-12-06T09:19:21.818Z,40
2017-12-06T09:20:30.358Z,40
2017-12-06T09:21:39.209Z,40
2017-12-06T09:22:47.707Z,45
2017-12-06T09:23:56.248Z,45
2017-12-06T09:25:04.790Z,45
2017-12-06T09:26:13.608Z,50
2017-12-06T09:27:22.147Z,50
2017-12-06T09:28:30.974Z,55
2017-12-06T09:29:39.530Z,55
2017-12-06T09:30:48.608Z,60
2017-12-06T09:31:57.415Z,60
2017-12-06T09:33:05.955Z,55
2017-12-06T09:34:14.762Z,55
2017-12-06T09:35:23.837Z,55
2017-12-06T09:36:32.914Z,55
2017-12-06T09:37:41.723Z,55
2017-12-06T09:38:50.277Z,60
2017-12-06T09:39:59.098Z,60
2017-12-06T09:41:08.972Z,55
2017-12-06T09:42:18.558Z,55
2017-12-06T09:43:27.128Z,55
2017-12-06T09:44:35.987Z,55
2017-12-06T09:45:44.483Z,55
2017-12-06T09:46:53.136Z,55
2017-12-06T09:48:01.677Z,60
2017-12-06T09:49:10.481Z,60
2017-12-06T09:50:19.558Z,55
2017-12-06T09:51:28.098Z,60
2017-12-06T09:52:36.902Z,60
2017-12-06T09:53:45.440Z,60
2017-12-06T09:54:54.261Z,60
2017-12-06T09:56:03.068Z,60
2017-12-06T09:57:11.606Z,65
2017-12-06T09:58:20.157Z,60
2017-12-06T09:59:28.703Z,65
2017-12-06T10:00:37.512Z,65
2017-12-06T10:01:46.317Z,70
2017-12-06T10:02:55.128Z,80
2017-12-06T10:04:03.665Z,80
2017-12-06T10:05:12.204Z,75
2017-12-06T10:06:20.745Z,75
2017-12-06T10:07:29.551Z,80
2017-12-06T10:08:38.362Z,80
2017-12-06T10:09:46.904Z,75
2017-12-06T10:10:55.441Z,80
2017-12-06T10:12:04.523Z,85
2017-12-06T10:13:13.327Z,90
2017-12-06T10:14:22.399Z,85
2017-12-06T10:15:30.999Z,85
2017-12-06T10:16:39.548Z,85
2017-12-06T10:17:48.361Z,90
2017-12-06T10:18:56.908Z,90
2017-12-06T10:20:05.715Z,95
2017-12-06T10:21:14.535Z,90
2017-12-06T10:22:23.384Z,85
2017-12-06T10:23:32.191Z,85
2017-12-06T10:24:40.998Z,95
2017-12-06T10:25:49.537Z,95
2017-12-06T10:26:58.351Z,95
2017-12-06T10:28:07.422Z,95
2017-12-06T10:29:16.231Z,95
2017-12-06T10:30:25.045Z,95
2017-12-06T10:31:33.592Z,90
2017-12-06T10:32:42.683Z,85
2017-12-06T10:33:51.411Z,90
2017-12-06T10:35:00.489Z,90
2017-12-06T10:36:09.028Z,85
2017-12-06T10:37:18.379Z,85
2017-12-06T10:38:27.462Z,80
2017-12-06T10:39:36.533Z,85
2017-12-06T10:40:45.344Z,85
2017-12-06T10:41:54.151Z,85
2017-12-06T10:43:02.969Z,80
2017-12-06T10:44:11.774Z,85
2017-12-06T10:45:20.584Z,85
2017-12-06T10:46:29.431Z,85
2017-12-06T10:47:38.252Z,85
2017-12-06T10:48:46.815Z,85
2017-12-06T10:49:55.924Z,85
2017-12-06T10:51:05.042Z,80
2017-12-06T10:52:13.848Z,80
2017-12-06T10:53:22.662Z,85
2017-12-06T10:54:31.733Z,90
2017-12-06T10:55:40.274Z,95
2017-12-06T10:56:49.082Z,100
2017-12-06T10:57:58.253Z,105
2017-12-06T10:59:07.085Z,100
2017-12-06T11:00:15.627Z,105
2017-12-06T11:01:24.169Z,115
2017-12-06T11:02:32.976Z,110
2017-12-06T11:03:41.787Z,115
2017-12-06T11:04:50.436Z,120
2017-12-06T11:05:59.554Z,120
2017-12-06T11:07:08.315Z,115
2017-12-06T11:08:16.855Z,110
2017-12-06T11:09:25.927Z,110
2017-12-06T11:10:34.736Z,105
2017-12-06T11:11:43.275Z,105
2017-12-06T11:12:52.094Z,110
2017-12-06T11:14:00.900Z,110
2017-12-06T11:15:09.442Z,100
2017-12-06T11:16:17.980Z,110
2017-12-06T11:17:26.785Z,115
2017-12-06T11:18:35.862Z,105
2017-12-06T11:19:44.941Z,110
2017-12-06T11:20:53.517Z,110
2017-12-06T11:22:02.291Z,110
2017-12-06T11:23:10.833Z,105
2017-12-06T11:24:19.643Z,100
2017-12-06T11:25:28.744Z,95
2017-12-06T11:26:37.597Z,85
2017-12-06T11:27:46.529Z,85
2017-12-06T11:28:55.073Z,90
2017-12-06T11:30:03.638Z,90
2017-12-06T11:31:12.766Z,95
2017-12-06T11:32:21.306Z,90
2017-12-06T11:33:29.851Z,95
2017-12-06T11:34:38.710Z,105
2017-12-06T11:35:47.793Z,105
2017-12-06T11:36:56.613Z,105
2017-12-06T11:38:05.435Z,105
2017-12-06T11:39:14.519Z,105
2017-12-06T11:40:23.107Z,100
2017-12-06T11:41:32.482Z,100
2017-12-06T11:42:41.031Z,100
2017-12-06T11:43:49.581Z,100
2017-12-06T11:44:58.182Z,105
2017-12-06T11:46:10.725Z,105
2017-12-06T11:47:19.810Z,105
2017-12-06T11:48:28.629Z,110
2017-12-06T11:49:37.448Z,110
2017-12-06T11:50:46.262Z,105
2017-12-06T11:51:54.807Z,105
2017-12-06T11:53:03.622Z,105
2017-12-06T11:54:12.760Z,110
2017-12-06T11:55:21.844Z,100
2017-12-06T11:56:30.661Z,95
2017-12-06T11:57:40.128Z,105
2017-12-06T11:58:49.209Z,110
2017-12-06T11:59:58.024Z,120
2017-12-06T12:01:06.579Z,115
2017-12-06T12:02:15.396Z,110
2017-12-06T12:03:24.478Z,110
2017-12-06T12:04:33.562Z,115
2017-12-06T12:05:42.648Z,115
2017-12-06T12:06:51.464Z,105
2017-12-06T12:08:00.820Z,95
2017-12-06T12:09:09.907Z,105
2017-12-06T12:10:18.741Z,110
2017-12-06T12:11:27.302Z,115
2017-12-06T12:12:35.941Z,110
2017-12-06T12:13:44.759Z,105
2017-12-06T12:14:53.578Z,100
2017-12-06T12:16:02.667Z,95
2017-12-06T12:17:11.208Z,100
2017-12-06T12:18:19.749Z,95
2017-12-06T12:19:28.557Z,90
2017-12-06T12:20:37.108Z,85
2017-12-06T12:21:45.940Z,85
2017-12-06T12:22:54.746Z,85
2017-12-06T12:24:03.552Z,90
2017-12-06T12:25:12.367Z,100
2017-12-06T12:26:20.904Z,105
2017-12-06T12:27:29.444Z,115
2017-12-06T12:28:37.986Z,115
2017-12-06T12:29:46.796Z,115
2017-12-06T12:30:55.604Z,115
2017-12-06T12:32:04.414Z,115
2017-12-06T12:33:13.492Z,120
2017-12-06T12:34:22.296Z,115
2017-12-06T12:35:31.105Z,115
2017-12-06T12:36:39.686Z,120
2017-12-06T12:37:49.029Z,120
2017-12-06T12:38:59.858Z,120
2017-12-06T12:40:08.404Z,120
2017-12-06T12:41:16.944Z,115
2017-12-06T12:42:26.082Z,115
2017-12-06T12:43:34.926Z,110
2017-12-06T12:44:43.739Z,110
2017-12-06T12:45:52.815Z,110
2017-12-06T12:47:01.856Z,110
2017-12-06T12:48:10.359Z,110
2017-12-06T12:49:19.165Z,110
2017-12-06T12:50:27.718Z,105
2017-12-06T12:51:36.535Z,105
2017-12-06T12:52:45.391Z,105
2017-12-06T12:53:54.466Z,105
2017-12-06T12:55:03.338Z,105
2017-12-06T12:56:12.468Z,105
2017-12-06T12:57:21.225Z,100
2017-12-06T12:58:30.038Z,100
2017-12-06T12:59:38.848Z,100
2017-12-06T13:00:48.010Z,100
2017-12-06T13:01:56.836Z,95
2017-12-06T13:03:05.658Z,95
2017-12-06T13:04:14.199Z,90
2017-12-06T13:05:23.006Z,95
2017-12-06T13:06:31.820Z,95
2017-12-06T13:07:41.748Z,95
2017-12-06T13:08:50.838Z,95
2017-12-06T13:09:59.724Z,95
2017-12-06T13:11:08.372Z,95
2017-12-06T13:12:17.455Z,90
2017-12-06T13:13:26.311Z,90
2017-12-06T13:14:35.216Z,90
2017-12-06T13:15:45.127Z,85
2017-12-06T13:16:53.766Z,85
2017-12-06T13:18:02.434Z,85
2017-12-06T13:19:11.322Z,85
2017-12-06T13:20:19.969Z,85
2017-12-06T13:21:29.099Z,85
2017-12-06T13:22:38.033Z,85
2017-12-06T13:23:46.707Z,80
2017-12-06T13:24:56.125Z,80
2017-12-06T13:26:05.586Z,80
2017-12-06T13:27:14.305Z,80
2017-12-06T13:28:22.944Z,80
2017-12-06T13:29:31.918Z,75
2017-12-06T13:30:40.627Z,75
2017-12-06T13:31:49.601Z,75
2017-12-06T13:32:58.427Z,80
2017-12-06T13:34:07.251Z,80
2017-12-06T13:35:16.735Z,80
2017-12-06T13:36:26.552Z,80
2017-12-06T13:37:35.536Z,80
2017-12-06T13:38:44.548Z,80
2017-12-06T13:39:53.675Z,80
2017-12-06T13:41:09.670Z,80
2017-12-06T13:42:18.968Z,75
2017-12-06T13:43:28.530Z,75
2017-12-06T17:57:15.070Z,0
2017-12-06T17:58:24.202Z,0
2017-12-06T17:59:32.745Z,0
2017-12-06T18:00:41.559Z,0
2017-12-06T18:01:50.366Z,0
2017-12-06T18:02:59.175Z,0
2017-12-06T18:04:08.251Z,0
2017-12-06T18:05:17.325Z,0
2017-12-06T18:06:25.867Z,0
2017-12-06T18:07:34.406Z,0
2017-12-06T18:08:43.265Z,0
2017-12-06T18:09:51.809Z,0
2017-12-06T18:11:00.346Z,0
2017-12-06T18:12:09.169Z,0
2017-12-06T18:13:17.984Z,0
2017-12-06T18:14:27.326Z,0
2017-12-06T18:15:36.133Z,0
2017-12-06T18:16:45.472Z,0
2017-12-06T18:17:54.282Z,0
2017-12-06T18:19:03.358Z,0
2017-12-06T18:20:12.426Z,0
2017-12-06T18:21:20.966Z,0
2017-12-06T18:22:29.772Z,0
2017-12-06T18:23:38.584Z,0
2017-12-06T18:24:47.466Z,0
2017-12-06T18:25:56.638Z,0
2017-12-06T18:27:05.469Z,0
2017-12-06T18:28:14.011Z,0
2017-12-06T18:29:22.892Z,0
2017-12-06T18:30:31.695Z,0
2017-12-06T18:31:40.772Z,0
2017-12-06T18:32:49.847Z,0
2017-12-06T18:33:58.916Z,0
2017-12-06T18:35:07.754Z,0
2017-12-06T18:36:16.294Z,0
2017-12-06T18:37:25.370Z,0
2017-12-06T18:38:34.174Z,0
2017-12-06T18:39:43.250Z,0
2017-12-06T18:40:52.062Z,0
2017-12-06T18:42:00.601Z,0
2017-12-06T18:43:09.139Z,0
2017-12-06T18:44:17.944Z,0
2017-12-06T18:45:26.748Z,0
2017-12-06T18:46:35.289Z,0
2017-12-06T18:47:44.095Z,0
2017-12-06T18:48:52.902Z,0
2017-12-06T18:50:01.438Z,0
2017-12-06T18:51:10.788Z,0
2017-12-06T18:52:19.593Z,0
2017-12-06T18:53:28.399Z,0
2017-12-06T18:54:37.474Z,0
2017-12-06T18:55:46.551Z,0
2017-12-06T18:56:55.622Z,0
2017-12-06T18:58:04.434Z,0
2017-12-06T18:59:12.972Z,0
2017-12-06T19:00:21.777Z,0
2017-12-06T19:01:31.157Z,0
2017-12-06T19:02:39.711Z,0
2017-12-06T19:03:48.531Z,0
2017-12-06T19:04:57.076Z,0
2017-12-06T19:06:06.209Z,0
2017-12-06T19:07:15.291Z,0
2017-12-06T19:08:24.097Z,0
2017-12-06T19:09:33.176Z,0
2017-12-06T19:10:41.984Z,0
2017-12-06T19:11:51.060Z,0
2017-12-06T19:12:59.599Z,0
2017-12-06T19:14:08.404Z,0
2017-12-06T19:15:17.148Z,0
2017-12-06T19:16:25.952Z,0
2017-12-06T19:17:35.024Z,0
2017-12-06T19:18:43.832Z,0
2017-12-06T19:19:52.905Z,0
2017-12-06T19:21:01.720Z,0
2017-12-06T19:22:10.258Z,0
2017-12-06T19:23:18.800Z,0
2017-12-06T19:24:27.338Z,0
2017-12-06T19:25:36.143Z,0
2017-12-06T19:26:44.679Z,0
2017-12-06T19:27:53.532Z,0
2017-12-06T19:29:02.338Z,0
2017-12-06T19:30:11.145Z,0
2017-12-06T19:31:19.686Z,0
2017-12-06T19:32:28.494Z,0
2017-12-06T19:33:37.299Z,0
2017-12-06T19:34:46.102Z,0
2017-12-06T19:35:54.639Z,0
2017-12-06T19:37:03.179Z,0
2017-12-06T19:38:12.006Z,0
2017-12-06T19:39:20.537Z,0
2017-12-06T19:40:29.344Z,0
2017-12-06T19:41:38.417Z,0
2017-12-06T19:42:47.031Z,0
2017-12-06T19:43:55.575Z,0
2017-12-06T19:45:04.405Z,0
2017-12-06T19:46:13.263Z,0
2017-12-06T19:47:22.068Z,0
2017-12-06T19:48:30.608Z,0
2017-12-06T19:49:39.150Z,0
2017-12-06T19:50:47.959Z,0
2017-12-06T19:51:56.770Z,0
2017-12-06T19:53:05.598Z,0
2017-12-06T19:54:14.405Z,0
2017-12-06T19:55:22.945Z,0
2017-12-06T19:56:32.281Z,0
2017-12-06T19:57:41.092Z,0
2017-12-06T19:58:49.632Z,0
2017-12-06T19:59:58.437Z,0
2017-12-06T20:01:07.510Z,0
2017-12-06T20:02:16.317Z,0
2017-12-06T20:03:25.131Z,0
2017-12-06T20:04:34.428Z,0
2017-12-06T20:05:43.238Z,0
2017-12-06T20:06:52.580Z,0
2017-12-06T20:08:01.123Z,0
2017-12-06T20:09:09.929Z,0
2017-12-06T20:10:18.736Z,0
2017-12-06T20:11:27.812Z,0
2017-12-06T20:12:36.882Z,0
2017-12-06T20:13:45.687Z,0
2017-12-06T20:14:54.563Z,0
2017-12-06T20:16:03.103Z,0
2017-12-06T20:17:12.178Z,0
2017-12-06T20:18:21.253Z,0
2017-12-06T20:19:29.794Z,0
2017-12-06T20:20:38.607Z,0
2017-12-06T20:21:47.683Z,0
2017-12-06T20:22:56.227Z,0
2017-12-06T20:24:05.039Z,0
2017-12-06T20:25:13.575Z,0
2017-12-06T20:26:22.648Z,0
2017-12-06T20:27:32.093Z,0
2017-12-06T20:28:41.110Z,0
2017-12-06T20:29:49.915Z,0
2017-12-06T20:30:58.456Z,0
2017-12-06T20:32:06.999Z,0
2017-12-06T20:33:15.538Z,0
2017-12-06T20:34:24.345Z,0
2017-12-06T20:35:32.889Z,0
2017-12-06T20:36:41.428Z,0
2017-12-06T20:37:50.235Z,0
2017-12-06T20:38:59.044Z,0
2017-12-06T20:40:07.585Z,0
2017-12-06T20:41:16.661Z,0
2017-12-06T20:42:25.467Z,0
2017-12-06T20:43:34.544Z,0
2017-12-06T20:44:43.085Z,0
2017-12-06T20:45:52.164Z,0
2017-12-06T20:47:00.972Z,0
2017-12-06T20:48:09.778Z,0
2017-12-06T20:49:18.855Z,0
2017-12-06T20:50:27.396Z,0
2017-12-06T20:51:36.472Z,0
2017-12-06T20:52:45.279Z,0
2017-12-06T20:53:54.354Z,0